createdAt,value
2023-10-08T00:00:16.153Z,4.68
2023-10-08T00:02:42.851Z,4.00
2023-10-08T00:07:57.909Z,4.22
2023-10-08T00:10:27.711Z,4.75
2023-10-08T00:12:54.436Z,5.90
2023-10-08T00:15:20.979Z,5.50
2023-10-08T00:17:47.591Z,6.00
2023-10-08T00:20:26.573Z,6.68
2023-10-08T00:22:56.822Z,5.18
2023-10-08T00:25:23.452Z,4.60
2023-10-08T00:27:52.393Z,4.10
2023-10-08T00:30:19.324Z,4.93
2023-10-08T00:32:46.489Z,4.38
2023-10-08T00:35:15.068Z,4.78
2023-10-08T00:37:41.911Z,4.47
2023-10-08T00:40:22.650Z,4.28
2023-10-08T00:42:52.497Z,4.65
2023-10-08T00:45:20.296Z,4.32
2023-10-08T00:47:48.461Z,5.43
2023-10-08T00:50:22.084Z,4.20
2023-10-08T00:53:10.706Z,4.70
2023-10-08T00:55:37.429Z,4.15
2023-10-08T00:58:12.903Z,4.30
2023-10-08T01:00:42.985Z,5.25
2023-10-08T01:03:16.827Z,3.92
2023-10-08T01:05:48.021Z,4.55
2023-10-08T01:08:35.840Z,4.20
2023-10-08T01:11:18.905Z,4.78
2023-10-08T01:13:47.122Z,4.10
2023-10-08T01:16:15.248Z,4.85
2023-10-08T01:18:47.548Z,3.90
2023-10-08T01:21:30.813Z,3.85
2023-10-08T01:23:57.969Z,4.10
2023-10-08T01:26:24.609Z,4.18
2023-10-08T01:28:51.206Z,4.07
2023-10-08T01:31:17.844Z,3.72
2023-10-08T01:33:57.936Z,3.83
2023-10-08T01:36:26.822Z,3.85
2023-10-08T01:38:55.613Z,3.65
2023-10-08T01:41:31.170Z,3.58
2023-10-08T01:43:59.534Z,3.45
2023-10-08T01:46:26.649Z,3.60
2023-10-08T01:49:06.349Z,3.83
2023-10-08T01:51:40.473Z,3.60
2023-10-08T01:54:13.136Z,4.28
2023-10-08T01:56:44.406Z,3.92
2023-10-08T01:59:13.034Z,3.78
2023-10-08T02:01:39.958Z,4.22
2023-10-08T02:04:10.967Z,4.00
2023-10-08T02:06:37.835Z,3.70
2023-10-08T02:09:07.478Z,4.35
2023-10-08T02:11:45.953Z,4.72
2023-10-08T02:14:13.602Z,4.18
2023-10-08T02:16:40.770Z,4.50
2023-10-08T02:19:07.934Z,4.05
2023-10-08T02:21:34.598Z,3.85
2023-10-08T02:24:01.262Z,3.83
2023-10-08T02:26:27.974Z,3.90
2023-10-08T02:28:55.131Z,4.20
2023-10-08T02:31:21.764Z,4.15
2023-10-08T02:33:48.480Z,3.65
2023-10-08T02:36:15.087Z,4.47
2023-10-08T02:38:41.959Z,3.92
2023-10-08T02:41:09.039Z,4.13
2023-10-08T02:43:37.596Z,3.92
2023-10-08T02:46:08.499Z,4.28
2023-10-08T02:48:36.229Z,4.43
2023-10-08T02:51:09.224Z,3.83
2023-10-08T02:53:36.579Z,4.47
2023-10-08T02:56:13.430Z,4.00
2023-10-08T02:58:41.750Z,3.50
2023-10-08T03:01:13.487Z,3.90
2023-10-08T03:03:43.325Z,4.47
2023-10-08T03:06:15.969Z,3.75
2023-10-08T03:08:43.223Z,4.90
2023-10-08T03:11:17.663Z,4.75
2023-10-08T03:13:47.637Z,3.90
2023-10-08T03:16:15.188Z,4.32
2023-10-08T03:18:51.396Z,4.07
2023-10-08T03:21:24.655Z,4.20
2023-10-08T03:23:52.843Z,4.15
2023-10-08T03:26:31.990Z,4.20
2023-10-08T03:29:00.389Z,4.18
2023-10-08T03:31:51.425Z,4.05
2023-10-08T03:34:28.425Z,4.50
2023-10-08T03:37:01.089Z,4.10
2023-10-08T03:39:47.638Z,4.13
2023-10-08T03:42:21.222Z,4.65
2023-10-08T03:44:53.777Z,4.22
2023-10-08T03:47:23.388Z,4.63
2023-10-08T03:49:51.821Z,4.05
2023-10-08T03:52:24.650Z,3.95
2023-10-08T03:55:05.450Z,4.60
2023-10-08T03:57:44.130Z,4.68
2023-10-08T04:00:19.371Z,4.93
2023-10-08T04:02:56.712Z,4.78
2023-10-08T04:05:28.963Z,4.68
2023-10-08T04:08:02.068Z,4.53
2023-10-08T04:10:50.687Z,5.15
2023-10-08T04:13:17.728Z,4.72
2023-10-08T04:15:44.532Z,4.68
2023-10-08T04:18:12.789Z,5.32
2023-10-08T04:20:40.290Z,4.40
2023-10-08T04:23:19.461Z,4.82
2023-10-08T04:25:48.508Z,4.47
2023-10-08T04:28:21.605Z,4.00
2023-10-08T04:30:49.305Z,4.82
2023-10-08T04:33:16.281Z,4.35
2023-10-08T04:35:57.892Z,4.70
2023-10-08T04:38:29.998Z,5.00
2023-10-08T04:41:03.177Z,4.82
2023-10-08T04:45:59.851Z,4.72
2023-10-08T04:48:28.911Z,5.05
2023-10-08T04:51:02.397Z,4.45
2023-10-08T04:53:38.556Z,5.20
2023-10-08T04:56:07.882Z,5.38
2023-10-08T04:58:38.289Z,4.45
2023-10-08T05:01:24.481Z,5.25
2023-10-08T05:03:58.921Z,4.25
2023-10-08T05:06:36.919Z,4.55
2023-10-08T05:09:20.385Z,4.95
2023-10-08T05:11:51.987Z,4.95
2023-10-08T05:14:36.046Z,4.72
2023-10-08T05:17:21.061Z,4.68
2023-10-08T05:20:06.201Z,4.88
2023-10-08T05:22:34.538Z,5.03
2023-10-08T05:25:09.177Z,4.97
2023-10-08T05:27:50.342Z,4.63
2023-10-08T05:30:39.774Z,4.63
2023-10-08T05:33:08.102Z,5.43
2023-10-08T05:35:39.694Z,5.68
2023-10-08T05:38:17.431Z,5.07
2023-10-08T05:41:00.121Z,5.38
2023-10-08T05:43:42.333Z,5.22
2023-10-08T05:46:23.041Z,6.03
2023-10-08T05:49:08.835Z,5.35
2023-10-08T05:51:50.749Z,6.03
2023-10-08T05:54:28.771Z,6.13
2023-10-08T05:57:26.112Z,4.70
2023-10-08T05:59:59.052Z,5.47
2023-10-08T06:02:29.746Z,5.13
2023-10-08T06:05:21.433Z,6.00
2023-10-08T06:07:56.453Z,5.50
2023-10-08T06:10:33.977Z,5.78
2023-10-08T06:13:30.937Z,5.70
2023-10-08T06:15:58.833Z,6.15
2023-10-08T06:18:30.695Z,5.88
2023-10-08T06:20:59.860Z,5.97
2023-10-08T06:23:36.440Z,5.35
2023-10-08T06:26:15.404Z,5.60
2023-10-08T06:28:45.253Z,7.13
2023-10-08T06:31:18.514Z,6.18
2023-10-08T06:33:46.190Z,6.32
2023-10-08T06:36:13.227Z,5.57
2023-10-08T06:38:42.141Z,5.43
2023-10-08T06:41:11.449Z,5.32
2023-10-08T06:43:39.117Z,5.80
2023-10-08T06:46:09.128Z,6.25
2023-10-08T06:48:36.228Z,6.20
2023-10-08T06:51:09.429Z,6.35
2023-10-08T06:53:36.242Z,6.57
2023-10-08T06:56:05.635Z,6.85
2023-10-08T06:58:33.565Z,7.32
2023-10-08T07:01:05.620Z,6.45
2023-10-08T07:03:35.317Z,6.65
2023-10-08T07:06:03.764Z,6.32
2023-10-08T07:08:34.379Z,6.53
2023-10-08T07:11:08.027Z,6.85
2023-10-08T07:13:37.280Z,6.40
2023-10-08T07:16:05.505Z,6.72
2023-10-08T07:18:35.137Z,7.30
2023-10-08T07:21:05.649Z,7.00
2023-10-08T07:23:35.962Z,6.82
2023-10-08T07:26:13.138Z,6.93
2023-10-08T07:28:43.071Z,6.03
2023-10-08T07:31:22.720Z,6.10
2023-10-08T07:33:57.427Z,6.50
2023-10-08T07:36:28.143Z,6.60
2023-10-08T07:38:55.099Z,6.97
2023-10-08T07:41:22.261Z,6.38
2023-10-08T07:43:59.541Z,7.05
2023-10-08T07:46:27.593Z,6.20
2023-10-08T07:48:59.352Z,5.97
2023-10-08T07:51:26.110Z,6.80
2023-10-08T07:53:59.649Z,6.20
2023-10-08T07:56:28.033Z,6.82
2023-10-08T07:58:58.041Z,6.60
2023-10-08T08:01:28.480Z,6.90
2023-10-08T08:03:55.233Z,6.32
2023-10-08T08:06:23.775Z,6.72
2023-10-08T08:08:50.551Z,6.70
2023-10-08T08:11:20.160Z,7.82
2023-10-08T08:13:47.790Z,6.65
2023-10-08T08:16:18.388Z,7.20
2023-10-08T08:19:00.652Z,7.47
2023-10-08T08:21:27.850Z,6.68
2023-10-08T08:24:05.903Z,6.93
2023-10-08T08:26:40.926Z,7.95
2023-10-08T08:29:12.739Z,7.63
2023-10-08T08:31:39.458Z,6.97
2023-10-08T08:34:15.294Z,6.93
2023-10-08T08:36:47.497Z,7.03
2023-10-08T08:39:29.833Z,7.20
2023-10-08T08:42:01.593Z,7.50
2023-10-08T08:44:40.683Z,6.95
2023-10-08T08:47:08.800Z,6.60
2023-10-08T08:49:40.732Z,8.50
2023-10-08T08:52:07.494Z,7.55
2023-10-08T08:54:37.680Z,7.50
2023-10-08T08:57:07.593Z,7.28
2023-10-08T08:59:38.032Z,7.22
2023-10-08T09:02:09.057Z,7.93
2023-10-08T09:04:38.895Z,7.07
2023-10-08T09:07:05.621Z,7.85
2023-10-08T09:09:33.544Z,8.35
2023-10-08T09:12:00.994Z,7.80
2023-10-08T09:14:33.389Z,8.57
2023-10-08T09:17:01.939Z,8.13
2023-10-08T09:19:31.002Z,8.75
2023-10-08T09:22:11.930Z,8.93
2023-10-08T09:24:42.749Z,8.68
2023-10-08T09:27:15.680Z,8.93
2023-10-08T09:29:43.405Z,8.98
2023-10-08T09:32:12.352Z,9.55
2023-10-08T09:34:39.282Z,9.48
2023-10-08T09:37:06.039Z,9.25
2023-10-08T09:39:35.403Z,9.70
2023-10-08T09:42:12.963Z,9.25
2023-10-08T09:44:40.661Z,9.95
2023-10-08T09:47:11.311Z,13.13
2023-10-08T09:49:44.567Z,11.57
2023-10-08T09:52:11.608Z,10.80
2023-10-08T09:54:49.157Z,10.68
2023-10-08T09:57:19.926Z,10.40
2023-10-08T09:59:50.342Z,10.25
2023-10-08T10:02:19.804Z,9.82
2023-10-08T10:04:46.615Z,10.40
2023-10-08T10:07:15.530Z,10.38
2023-10-08T10:09:47.992Z,10.18
2023-10-08T10:12:20.189Z,10.07
2023-10-08T10:14:48.361Z,10.35
2023-10-08T10:17:28.307Z,10.63
2023-10-08T10:20:02.331Z,11.13
2023-10-08T10:22:38.319Z,11.43
2023-10-08T10:25:16.161Z,9.57
2023-10-08T10:27:52.545Z,11.00
2023-10-08T10:30:22.770Z,10.77
2023-10-08T10:32:54.799Z,10.32
2023-10-08T10:35:22.060Z,11.25
2023-10-08T10:37:56.806Z,10.77
2023-10-08T10:40:32.407Z,9.73
2023-10-08T10:43:01.979Z,9.93
2023-10-08T10:45:37.975Z,10.68
2023-10-08T10:48:14.516Z,9.73
2023-10-08T10:50:50.099Z,10.82
2023-10-08T10:53:20.048Z,11.07
2023-10-08T10:55:59.847Z,10.73
2023-10-08T10:58:27.933Z,9.90
2023-10-08T11:01:05.858Z,11.55
2023-10-08T11:03:36.157Z,11.15
2023-10-08T11:06:16.432Z,11.07
2023-10-08T11:08:47.770Z,10.98
2023-10-08T11:11:18.631Z,10.80
2023-10-08T11:13:51.348Z,11.38
2023-10-08T11:16:21.234Z,11.50
2023-10-08T11:18:51.690Z,11.18
2023-10-08T11:21:23.733Z,11.80
2023-10-08T11:23:54.943Z,12.15
2023-10-08T11:26:33.199Z,11.30
2023-10-08T11:29:04.971Z,11.77
2023-10-08T11:31:35.206Z,11.98
2023-10-08T11:34:10.582Z,12.23
2023-10-08T11:36:58.829Z,12.07
2023-10-08T11:39:31.346Z,11.88
2023-10-08T11:42:07.994Z,11.90
2023-10-08T11:44:40.596Z,11.20
2023-10-08T11:47:13.790Z,13.00
2023-10-08T11:52:22.414Z,10.50
2023-10-08T11:54:50.100Z,11.05
2023-10-08T11:57:23.325Z,11.10
2023-10-08T11:59:54.145Z,11.38
2023-10-08T12:02:22.084Z,10.35
2023-10-08T12:04:49.603Z,10.55
2023-10-08T12:07:18.787Z,10.32
2023-10-08T12:09:49.715Z,10.57
2023-10-08T12:12:19.946Z,10.18
2023-10-08T12:14:48.623Z,9.80
2023-10-08T12:17:18.106Z,10.13
2023-10-08T12:19:46.293Z,10.52
2023-10-08T12:22:19.222Z,10.52
2023-10-08T12:24:45.925Z,10.15
2023-10-08T12:27:13.334Z,9.18
2023-10-08T12:29:40.238Z,9.57
2023-10-08T12:32:18.732Z,9.82
2023-10-08T12:34:45.660Z,10.27
2023-10-08T12:37:16.010Z,9.82
2023-10-08T12:39:58.023Z,8.55
2023-10-08T12:42:26.650Z,10.13
2023-10-08T12:44:53.553Z,9.45
2023-10-08T12:47:20.181Z,9.95
2023-10-08T12:49:48.039Z,9.35
2023-10-08T12:52:15.877Z,9.43
2023-10-08T12:54:46.552Z,9.10
2023-10-08T12:57:17.521Z,9.63
2023-10-08T12:59:49.570Z,9.85
2023-10-08T13:02:19.534Z,9.02
2023-10-08T13:05:17.041Z,8.65
2023-10-08T13:07:46.030Z,8.75
2023-10-08T13:10:15.912Z,7.53
2023-10-08T13:12:42.873Z,8.07
2023-10-08T13:15:10.138Z,8.95
2023-10-08T13:17:36.946Z,7.72
2023-10-08T13:20:04.258Z,8.57
2023-10-08T13:22:30.867Z,7.88
2023-10-08T13:25:01.998Z,8.77
2023-10-08T13:27:29.373Z,8.02
2023-10-08T13:29:56.065Z,7.82
2023-10-08T13:32:22.849Z,8.70
2023-10-08T13:34:49.921Z,8.80
2023-10-08T13:37:16.873Z,7.70
2023-10-08T13:39:43.774Z,8.93
2023-10-08T13:42:15.029Z,7.97
2023-10-08T13:44:44.297Z,7.40
2023-10-08T13:47:16.305Z,7.72
2023-10-08T13:49:44.220Z,7.85
2023-10-08T13:52:11.725Z,8.63
2023-10-08T13:54:43.136Z,8.15
2023-10-08T13:57:10.326Z,8.23
2023-10-08T13:59:39.293Z,8.18
2023-10-08T14:02:15.693Z,8.68
2023-10-08T14:04:44.977Z,7.82
2023-10-08T14:07:19.557Z,8.07
2023-10-08T14:09:46.947Z,7.95
2023-10-08T14:12:15.023Z,8.20
2023-10-08T14:14:45.049Z,7.68
2023-10-08T14:17:15.890Z,6.80
2023-10-08T14:19:53.669Z,7.68
2023-10-08T14:22:23.366Z,7.07
2023-10-08T14:24:59.913Z,6.65
2023-10-08T14:27:33.313Z,7.43
2023-10-08T14:30:02.804Z,7.10
2023-10-08T14:32:29.518Z,7.85
2023-10-08T14:34:56.194Z,8.30
2023-10-08T14:37:42.646Z,6.97
2023-10-08T14:40:28.830Z,7.22
2023-10-08T14:43:03.589Z,7.50
2023-10-08T14:45:33.046Z,7.20
2023-10-08T14:48:00.220Z,7.15
2023-10-08T14:50:34.369Z,6.72
2023-10-08T14:53:02.878Z,6.70
2023-10-08T14:55:30.603Z,6.97
2023-10-08T14:57:57.447Z,7.15
2023-10-08T15:00:27.752Z,7.25
2023-10-08T15:02:59.596Z,7.50
2023-10-08T15:05:26.407Z,6.63
2023-10-08T15:07:53.161Z,7.10
2023-10-08T15:10:20.744Z,6.55
2023-10-08T15:12:47.884Z,6.70
2023-10-08T15:15:15.357Z,6.60
2023-10-08T15:17:47.614Z,6.72
2023-10-08T15:20:17.969Z,6.83
2023-10-08T15:22:46.026Z,6.60
2023-10-08T15:25:14.383Z,6.85
2023-10-08T15:27:42.401Z,6.65
2023-10-08T15:30:13.749Z,7.07
2023-10-08T15:32:41.076Z,6.57
2023-10-08T15:35:10.274Z,7.18
2023-10-08T15:37:38.518Z,7.28
2023-10-08T15:40:09.726Z,6.97
2023-10-08T15:42:38.055Z,7.05
2023-10-08T15:45:07.989Z,7.03
2023-10-08T15:47:34.809Z,6.57
2023-10-08T15:50:01.500Z,6.80
2023-10-08T15:52:28.560Z,6.63
2023-10-08T15:54:55.216Z,6.85
2023-10-08T15:57:24.060Z,5.85
2023-10-08T15:59:55.267Z,6.70
2023-10-08T16:02:22.142Z,7.03
2023-10-08T16:04:48.963Z,6.53
2023-10-08T16:07:15.939Z,7.28
2023-10-08T16:09:42.606Z,6.85
2023-10-08T16:12:10.113Z,6.55
2023-10-08T16:14:38.187Z,6.45
2023-10-08T16:17:08.736Z,7.38
2023-10-08T16:19:37.983Z,7.55
2023-10-08T16:22:04.671Z,7.68
2023-10-08T16:24:31.323Z,7.80
2023-10-08T16:26:58.509Z,6.60
2023-10-08T16:29:25.396Z,7.88
2023-10-08T16:31:51.928Z,7.25
2023-10-08T16:34:18.882Z,8.55
2023-10-08T16:36:49.335Z,8.20
2023-10-08T16:39:18.779Z,7.35
2023-10-08T16:41:46.789Z,7.10
2023-10-08T16:44:13.681Z,7.15
2023-10-08T16:46:42.511Z,6.90
2023-10-08T16:49:09.712Z,6.18
2023-10-08T16:51:36.349Z,7.95
2023-10-08T16:54:04.918Z,7.72
2023-10-08T16:56:34.370Z,7.30
2023-10-08T16:59:00.986Z,8.18
2023-10-08T17:01:27.770Z,6.93
2023-10-08T17:03:56.430Z,6.63
2023-10-08T17:06:23.456Z,6.40
2023-10-08T17:08:50.589Z,7.43
2023-10-08T17:11:17.361Z,7.88
2023-10-08T17:13:44.010Z,8.45
2023-10-08T17:16:14.439Z,9.98
2023-10-08T17:18:44.404Z,8.95
2023-10-08T17:21:11.221Z,8.13
2023-10-08T17:23:38.808Z,9.07
2023-10-08T17:26:05.573Z,9.23
2023-10-08T17:28:32.215Z,8.95
2023-10-08T17:31:00.265Z,8.40
2023-10-08T17:33:30.008Z,8.40
2023-10-08T17:35:56.864Z,10.18
2023-10-08T17:38:24.120Z,9.82
2023-10-08T17:40:50.810Z,9.48
2023-10-08T17:43:17.392Z,9.40
2023-10-08T17:45:47.209Z,9.73
2023-10-08T17:48:14.139Z,9.43
2023-10-08T17:50:41.370Z,9.15
2023-10-08T17:53:09.100Z,9.40
2023-10-08T17:55:36.907Z,9.48
2023-10-08T17:58:04.414Z,9.40
2023-10-08T18:00:34.886Z,8.77
2023-10-08T18:03:02.404Z,9.38
2023-10-08T18:05:30.356Z,8.45
2023-10-08T18:07:57.149Z,8.93
2023-10-08T18:10:24.867Z,9.68
2023-10-08T18:12:52.499Z,9.80
2023-10-08T18:15:23.402Z,9.80
2023-10-08T18:17:53.146Z,9.52
2023-10-08T18:20:20.490Z,9.88
2023-10-08T18:22:55.021Z,10.13
2023-10-08T18:25:22.697Z,11.05
2023-10-08T18:27:49.628Z,10.10
2023-10-08T18:30:16.938Z,10.20
2023-10-08T18:32:44.292Z,9.02
2023-10-08T18:35:14.010Z,9.65
2023-10-08T18:37:41.545Z,10.38
2023-10-08T18:40:15.173Z,9.95
2023-10-08T18:42:44.016Z,10.20
2023-10-08T18:45:12.802Z,9.65
2023-10-08T18:47:42.092Z,10.20
2023-10-08T18:50:16.091Z,10.27
2023-10-08T18:52:43.888Z,11.00
2023-10-08T18:55:10.719Z,11.30
2023-10-08T18:57:39.094Z,11.60
2023-10-08T19:00:11.370Z,10.63
2023-10-08T19:02:41.131Z,10.85
2023-10-08T19:05:09.495Z,10.50
2023-10-08T19:07:36.963Z,10.63
2023-10-08T19:10:05.394Z,10.50
2023-10-08T19:12:37.823Z,10.80
2023-10-08T19:17:34.157Z,10.55
2023-10-08T19:20:00.804Z,11.63
2023-10-08T19:22:27.465Z,10.85
2023-10-08T19:24:55.993Z,10.93
2023-10-08T19:27:25.267Z,11.25
2023-10-08T19:29:52.120Z,10.57
2023-10-08T19:32:18.785Z,10.95
2023-10-08T19:34:45.826Z,10.25
2023-10-08T19:37:15.540Z,10.88
2023-10-08T19:39:42.191Z,10.30
2023-10-08T19:42:08.902Z,10.45
2023-10-08T19:44:36.212Z,11.20
2023-10-08T19:47:03.421Z,9.77
2023-10-08T19:49:30.465Z,9.85
2023-10-08T19:51:58.663Z,9.93
2023-10-08T19:54:26.774Z,10.35
2023-10-08T19:56:55.320Z,13.32
2023-10-08T19:59:22.002Z,12.70
2023-10-08T20:01:48.766Z,11.40
2023-10-08T20:04:15.738Z,11.48
2023-10-08T20:06:43.379Z,11.85
2023-10-08T20:09:10.789Z,9.93
2023-10-08T20:11:38.882Z,10.50
2023-10-08T20:14:05.619Z,10.57
2023-10-08T20:16:33.343Z,10.43
2023-10-08T20:19:00.665Z,9.73
2023-10-08T20:21:27.547Z,10.50
2023-10-08T20:23:54.357Z,9.95
2023-10-08T20:26:23.879Z,9.63
2023-10-08T20:28:54.350Z,8.75
2023-10-08T20:31:22.544Z,9.43
2023-10-08T20:33:50.013Z,9.32
2023-10-08T20:36:18.853Z,10.23
2023-10-08T20:38:45.834Z,10.32
2023-10-08T20:41:17.309Z,9.55
2023-10-08T20:43:44.404Z,9.73
2023-10-08T20:46:18.189Z,9.73
2023-10-08T20:48:47.470Z,9.50
2023-10-08T20:51:18.506Z,10.27
2023-10-08T20:53:46.489Z,9.80
2023-10-08T20:56:13.576Z,10.23
2023-10-08T20:58:40.392Z,9.98
2023-10-08T21:01:07.983Z,10.98
2023-10-08T21:03:35.155Z,10.10
2023-10-08T21:06:03.220Z,9.90
2023-10-08T21:08:30.932Z,9.88
2023-10-08T21:11:01.021Z,9.52
2023-10-08T21:13:29.427Z,10.32
2023-10-08T21:15:58.454Z,9.68
2023-10-08T21:18:25.343Z,12.80
2023-10-08T21:20:52.595Z,10.20
2023-10-08T21:23:19.410Z,10.18
2023-10-08T21:25:46.573Z,10.80
2023-10-08T21:28:14.840Z,9.75
2023-10-08T21:30:42.063Z,10.52
2023-10-08T21:33:10.634Z,9.68
2023-10-08T21:35:39.186Z,9.98
2023-10-08T21:38:07.447Z,9.75
2023-10-08T21:40:34.303Z,10.63
2023-10-08T21:43:01.231Z,10.30
2023-10-08T21:45:28.456Z,9.35
2023-10-08T21:47:56.467Z,10.80
2023-10-08T21:50:24.636Z,9.85
2023-10-08T21:52:53.503Z,9.07
2023-10-08T21:55:22.942Z,9.82
2023-10-08T21:57:51.486Z,9.70
2023-10-08T22:00:24.814Z,9.70
2023-10-08T22:02:55.245Z,9.88
2023-10-08T22:05:23.259Z,9.63
2023-10-08T22:07:51.139Z,9.18
2023-10-08T22:10:21.938Z,9.80
2023-10-08T22:12:50.507Z,10.18
2023-10-08T22:15:18.008Z,10.15
2023-10-08T22:17:45.765Z,10.40
2023-10-08T22:20:36.857Z,10.15
2023-10-08T22:23:06.478Z,9.13
2023-10-08T22:25:37.712Z,9.77
2023-10-08T22:28:19.350Z,10.68
2023-10-08T22:30:52.969Z,11.00
2023-10-08T22:33:26.540Z,10.25
2023-10-08T22:35:59.025Z,10.30
2023-10-08T22:38:30.431Z,10.02
2023-10-08T22:41:00.797Z,9.65
2023-10-08T22:43:37.480Z,10.35
2023-10-08T22:46:07.814Z,10.32
2023-10-08T22:48:44.155Z,9.55
2023-10-08T22:51:25.988Z,11.20
2023-10-08T22:53:57.629Z,10.75
2023-10-08T22:56:25.782Z,10.55
2023-10-08T22:58:54.047Z,10.18
2023-10-08T23:01:22.719Z,10.93
2023-10-08T23:03:54.555Z,10.73
2023-10-08T23:06:24.922Z,10.77
2023-10-08T23:08:53.064Z,10.77
2023-10-08T23:11:21.304Z,11.27
2023-10-08T23:13:48.055Z,10.43
2023-10-08T23:16:20.582Z,10.43
2023-10-08T23:18:56.393Z,10.70
2023-10-08T23:21:26.816Z,11.13
2023-10-08T23:23:53.904Z,11.35
2023-10-08T23:26:22.124Z,11.20
2023-10-08T23:28:49.521Z,10.93
2023-10-08T23:31:18.883Z,11.32
2023-10-08T23:33:48.905Z,12.05
2023-10-08T23:36:18.022Z,10.80
2023-10-08T23:38:54.051Z,11.85
2023-10-08T23:41:32.796Z,11.23
2023-10-08T23:44:03.739Z,10.55
2023-10-08T23:46:32.369Z,11.02
2023-10-08T23:49:06.902Z,11.00
2023-10-08T23:51:38.400Z,10.98
2023-10-08T23:54:13.072Z,11.95
2023-10-08T23:56:44.122Z,11.07
2023-10-08T23:59:18.378Z,10.88
